createdAt,value
2018-04-20T00:00:04.771Z,0
2018-04-20T00:01:04.241Z,0
2018-04-20T00:02:03.956Z,0
2018-04-20T00:03:03.677Z,0
2018-04-20T00:04:04.199Z,0
2018-04-20T00:05:04.472Z,0
2018-04-20T00:06:03.909Z,0
2018-04-20T00:07:04.430Z,0
2018-04-20T00:08:04.155Z,0
2018-04-20T00:09:03.882Z,0
2018-04-20T00:10:03.609Z,0
2018-04-20T00:11:04.119Z,0
2018-04-20T00:12:03.883Z,0
2018-04-20T00:13:03.841Z,0
2018-04-20T00:14:04.372Z,0
2018-04-20T00:15:04.406Z,0
2018-04-20T00:16:04.075Z,0
2018-04-20T00:17:04.598Z,0
2018-04-20T00:18:04.050Z,0
2018-04-20T00:19:04.041Z,0
2018-04-20T00:20:04.570Z,0
2018-04-20T00:21:03.764Z,0
2018-04-20T00:22:04.276Z,0
2018-04-20T00:23:04.263Z,0
2018-04-20T00:24:03.991Z,0
2018-04-20T00:25:03.712Z,0
2018-04-20T00:26:04.512Z,0
2018-04-20T00:27:03.687Z,0
2018-04-20T00:28:04.418Z,0
2018-04-20T00:29:04.196Z,0
2018-04-20T00:30:03.919Z,0
2018-04-20T00:31:04.176Z,0
2018-04-20T00:32:04.167Z,0
2018-04-20T00:33:03.615Z,0
2018-04-20T00:34:03.882Z,0
2018-04-20T00:35:04.130Z,0
2018-04-20T00:36:03.853Z,0
2018-04-20T00:37:03.584Z,0
2018-04-20T00:38:04.041Z,0
2018-04-20T00:39:03.825Z,0
2018-04-20T00:40:03.557Z,0
2018-04-20T00:41:04.343Z,0
2018-04-20T00:42:04.068Z,0
2018-04-20T00:43:03.788Z,0
2018-04-20T00:44:03.523Z,0
2018-04-20T00:45:03.764Z,0
2018-04-20T00:46:03.545Z,0
2018-04-20T00:47:03.751Z,0
2018-04-20T00:48:03.192Z,0
2018-04-20T00:49:03.984Z,0
2018-04-20T00:50:03.985Z,0
2018-04-20T00:51:03.962Z,0
2018-04-20T00:52:03.942Z,0
2018-04-20T00:53:03.675Z,0
2018-04-20T00:54:03.937Z,0
2018-04-20T00:55:04.186Z,0
2018-04-20T00:56:03.365Z,0
2018-04-20T00:57:03.365Z,0
2018-04-20T00:58:04.156Z,0
2018-04-20T00:59:03.334Z,0
2018-04-20T01:00:03.337Z,0
2018-04-20T01:01:03.583Z,0
2018-04-20T01:02:03.302Z,0
2018-04-20T01:03:03.824Z,0
2018-04-20T01:04:03.550Z,0
2018-04-20T01:05:04.064Z,0
2018-04-20T01:06:03.526Z,0
2018-04-20T01:07:03.509Z,0
2018-04-20T01:08:03.767Z,0
2018-04-20T01:09:03.749Z,0
2018-04-20T01:10:03.731Z,0
2018-04-20T01:11:03.730Z,0
2018-04-20T01:12:03.721Z,0
2018-04-20T01:13:03.180Z,0
2018-04-20T01:14:03.736Z,0
2018-04-20T01:15:03.424Z,0
2018-04-20T01:16:03.405Z,0
2018-04-20T01:17:03.124Z,0
2018-04-20T01:18:03.999Z,0
2018-04-20T01:19:03.392Z,0
2018-04-20T01:20:03.637Z,0
2018-04-20T01:21:03.625Z,0
2018-04-20T01:22:03.359Z,0
2018-04-20T01:23:03.334Z,0
2018-04-20T01:24:03.323Z,0
2018-04-20T01:25:03.031Z,0
2018-04-20T01:26:03.018Z,0
2018-04-20T01:27:03.556Z,0
2018-04-20T01:28:03.275Z,0
2018-04-20T01:29:03.514Z,0
2018-04-20T01:30:03.250Z,0
2018-04-20T01:31:03.495Z,0
2018-04-20T01:32:02.950Z,0
2018-04-20T01:33:03.477Z,0
2018-04-20T01:34:02.934Z,0
2018-04-20T01:35:03.451Z,0
2018-04-20T01:36:02.957Z,0
2018-04-20T01:37:03.686Z,0
2018-04-20T01:38:03.150Z,0
2018-04-20T01:39:03.404Z,0
2018-04-20T01:40:03.413Z,0
2018-04-20T01:41:02.848Z,0
2018-04-20T01:42:02.838Z,0
2018-04-20T01:43:02.819Z,0
2018-04-20T01:44:03.342Z,0
2018-04-20T01:45:03.593Z,0
2018-04-20T01:46:03.053Z,0
2018-04-20T01:47:03.309Z,0
2018-04-20T01:48:03.289Z,0
2018-04-20T01:49:02.744Z,0
2018-04-20T01:50:03.538Z,0
2018-04-20T01:51:02.985Z,0
2018-04-20T01:52:02.985Z,0
2018-04-20T01:53:03.238Z,0
2018-04-20T01:54:02.965Z,0
2018-04-20T01:55:02.676Z,0
2018-04-20T01:56:03.191Z,0
2018-04-20T01:57:02.651Z,0
2018-04-20T01:58:02.638Z,0
2018-04-20T01:59:02.914Z,0
2018-04-20T02:00:03.419Z,0
2018-04-20T02:01:03.245Z,0
2018-04-20T02:02:02.588Z,0
2018-04-20T02:03:03.118Z,0
2018-04-20T02:04:03.361Z,0
2018-04-20T02:05:02.549Z,0
2018-04-20T02:06:02.804Z,0
2018-04-20T02:07:02.896Z,0
2018-04-20T02:08:02.788Z,0
2018-04-20T02:09:03.038Z,0
2018-04-20T02:10:03.030Z,0
2018-04-20T02:11:03.015Z,0
2018-04-20T02:12:02.999Z,0
2018-04-20T02:13:02.998Z,0
2018-04-20T02:14:02.457Z,0
2018-04-20T02:15:02.704Z,0
2018-04-20T02:16:02.957Z,0
2018-04-20T02:17:02.678Z,0
2018-04-20T02:18:02.929Z,0
2018-04-20T02:19:02.922Z,0
2018-04-20T02:20:03.184Z,0
2018-04-20T02:21:02.369Z,0
2018-04-20T02:22:02.875Z,0
2018-04-20T02:23:02.861Z,0
2018-04-20T02:24:02.328Z,0
2018-04-20T02:25:02.581Z,0
2018-04-20T02:26:02.831Z,0
2018-04-20T02:27:02.835Z,0
2018-04-20T02:28:02.544Z,0
2018-04-20T02:29:02.790Z,0
2018-04-20T02:30:01.993Z,0
2018-04-20T02:31:02.668Z,0
2018-04-20T02:32:02.287Z,0
2018-04-20T02:33:02.797Z,0
2018-04-20T02:34:01.939Z,0
2018-04-20T02:35:02.455Z,0
2018-04-20T02:36:02.185Z,0
2018-04-20T02:37:02.438Z,0
2018-04-20T02:38:03.077Z,0
2018-04-20T02:39:02.690Z,0
2018-04-20T02:40:02.947Z,0
2018-04-20T02:41:02.657Z,0
2018-04-20T02:42:02.110Z,0
2018-04-20T02:43:02.898Z,0
2018-04-20T02:44:02.353Z,0
2018-04-20T02:45:02.601Z,0
2018-04-20T02:46:02.603Z,0
2018-04-20T02:47:02.057Z,0
2018-04-20T02:48:02.103Z,0
2018-04-20T02:49:02.831Z,0
2018-04-20T02:50:02.820Z,0
2018-04-20T02:51:02.277Z,0
2018-04-20T02:52:02.530Z,0
2018-04-20T02:53:02.782Z,0
2018-04-20T02:54:02.232Z,0
2018-04-20T02:55:02.231Z,0
2018-04-20T02:56:02.201Z,0
2018-04-20T02:57:02.187Z,0
2018-04-20T02:58:02.181Z,0
2018-04-20T02:59:02.165Z,0
2018-04-20T03:00:02.156Z,0
2018-04-20T03:01:02.137Z,0
2018-04-20T03:02:02.157Z,0
2018-04-20T03:03:02.120Z,0
2018-04-20T03:04:02.633Z,0
2018-04-20T03:05:02.100Z,0
2018-04-20T03:06:02.338Z,0
2018-04-20T03:07:02.322Z,0
2018-04-20T03:08:01.918Z,0
2018-04-20T03:09:02.605Z,0
2018-04-20T03:10:02.326Z,0
2018-04-20T03:11:02.036Z,0
2018-04-20T03:12:02.274Z,0
2018-04-20T03:13:02.249Z,0
2018-04-20T03:14:02.240Z,0
2018-04-20T03:15:01.697Z,0
2018-04-20T03:16:02.221Z,0
2018-04-20T03:17:02.476Z,0
2018-04-20T03:18:02.207Z,0
2018-04-20T03:19:02.183Z,0
2018-04-20T03:20:01.896Z,0
2018-04-20T03:21:01.619Z,0
2018-04-20T03:22:01.607Z,0
2018-04-20T03:23:02.385Z,0
2018-04-20T03:24:02.129Z,0
2018-04-20T03:25:02.379Z,0
2018-04-20T03:26:01.554Z,0
2018-04-20T03:27:01.816Z,0
2018-04-20T03:28:01.269Z,0
2018-04-20T03:29:02.076Z,0
2018-04-20T03:30:01.771Z,0
2018-04-20T03:31:01.496Z,0
2018-04-20T03:32:01.770Z,0
2018-04-20T03:33:02.272Z,0
2018-04-20T03:34:01.743Z,0
2018-04-20T03:35:01.973Z,0
2018-04-20T03:36:01.963Z,0
2018-04-20T03:37:02.213Z,0
2018-04-20T03:38:01.664Z,0
2018-04-20T03:39:01.942Z,0
2018-04-20T03:40:01.924Z,0
2018-04-20T03:41:01.104Z,0
2018-04-20T03:42:02.148Z,0
2018-04-20T03:43:01.340Z,0
2018-04-20T03:44:02.148Z,0
2018-04-20T03:45:02.047Z,0
2018-04-20T03:46:01.578Z,0
2018-04-20T03:47:01.560Z,0
2018-04-20T03:48:01.813Z,0
2018-04-20T03:49:01.533Z,0
2018-04-20T03:50:01.794Z,0
2018-04-20T03:51:01.775Z,0
2018-04-20T03:52:01.502Z,0
2018-04-20T03:53:01.474Z,0
2018-04-20T03:54:01.213Z,0
2018-04-20T03:55:01.451Z,0
2018-04-20T03:56:01.435Z,0
2018-04-20T03:57:01.430Z,0
2018-04-20T03:58:01.422Z,0
2018-04-20T03:59:01.411Z,0
2018-04-20T04:00:01.391Z,0
2018-04-20T04:01:01.645Z,0
2018-04-20T04:02:01.640Z,0
2018-04-20T04:03:01.089Z,0
2018-04-20T04:04:01.079Z,0
2018-04-20T04:05:01.330Z,0
2018-04-20T04:06:01.314Z,0
2018-04-20T04:07:01.298Z,0
2018-04-20T04:08:01.275Z,0
2018-04-20T04:09:01.273Z,0
2018-04-20T04:10:01.257Z,0
2018-04-20T04:11:01.234Z,0
2018-04-20T04:12:00.961Z,0
2018-04-20T04:13:01.490Z,0
2018-04-20T04:14:00.671Z,0
2018-04-20T04:15:01.450Z,0
2018-04-20T04:16:01.447Z,0
2018-04-20T04:17:01.165Z,0
2018-04-20T04:18:01.540Z,0
2018-04-20T04:19:00.866Z,0
2018-04-20T04:20:00.865Z,0
2018-04-20T04:21:01.373Z,0
2018-04-20T04:22:00.854Z,0
2018-04-20T04:23:01.357Z,0
2018-04-20T04:24:01.340Z,0
2018-04-20T04:25:01.066Z,0
2018-04-20T04:26:01.045Z,0
2018-04-20T04:27:01.291Z,5
2018-04-20T04:28:01.018Z,5
2018-04-20T04:29:01.549Z,5
2018-04-20T04:30:01.534Z,5
2018-04-20T04:31:01.243Z,5
2018-04-20T04:32:00.696Z,5
2018-04-20T04:33:00.946Z,5
2018-04-20T04:34:01.205Z,5
2018-04-20T04:35:00.723Z,5
2018-04-20T04:36:00.645Z,5
2018-04-20T04:37:00.893Z,5
2018-04-20T04:38:01.561Z,10
2018-04-20T04:39:01.140Z,10
2018-04-20T04:40:00.595Z,10
2018-04-20T04:41:01.393Z,10
2018-04-20T04:42:01.360Z,10
2018-04-20T04:43:00.555Z,10
2018-04-20T04:44:00.536Z,10
2018-04-20T04:45:01.053Z,10
2018-04-20T04:46:01.037Z,15
2018-04-20T04:47:01.026Z,15
2018-04-20T04:48:01.305Z,15
2018-04-20T04:49:00.750Z,15
2018-04-20T04:50:00.990Z,15
2018-04-20T04:51:00.715Z,15
2018-04-20T04:52:01.218Z,15
2018-04-20T04:53:00.983Z,20
2018-04-20T04:54:01.232Z,20
2018-04-20T04:55:00.931Z,20
2018-04-20T04:56:00.390Z,20
2018-04-20T04:57:01.164Z,20
2018-04-20T04:58:01.153Z,20
2018-04-20T04:59:00.339Z,20
2018-04-20T05:00:00.861Z,25
2018-04-20T05:01:00.581Z,25
2018-04-20T05:02:00.824Z,25
2018-04-20T05:03:00.555Z,25
2018-04-20T05:04:00.548Z,25
2018-04-20T05:05:00.524Z,25
2018-04-20T05:06:00.504Z,25
2018-04-20T05:06:59.971Z,25
2018-04-20T05:08:00.755Z,30
2018-04-20T05:09:00.736Z,30
2018-04-20T05:10:00.731Z,30
2018-04-20T05:11:00.193Z,30
2018-04-20T05:12:00.436Z,30
2018-04-20T05:13:00.429Z,30
2018-04-20T05:14:00.404Z,35
2018-04-20T05:15:00.663Z,35
2018-04-20T05:16:00.385Z,35
2018-04-20T05:16:59.839Z,35
2018-04-20T05:18:00.625Z,35
2018-04-20T05:19:00.081Z,35
2018-04-20T05:20:00.061Z,35
2018-04-20T05:21:00.317Z,40
2018-04-20T05:21:59.770Z,40
2018-04-20T05:23:00.019Z,40
2018-04-20T05:24:00.575Z,40
2018-04-20T05:25:00.268Z,40
2018-04-20T05:26:00.519Z,40
2018-04-20T05:27:00.251Z,45
2018-04-20T05:28:00.230Z,45
2018-04-20T05:29:00.486Z,45
2018-04-20T05:30:00.473Z,45
2018-04-20T05:31:00.450Z,45
2018-04-20T05:32:00.171Z,45
2018-04-20T05:33:00.555Z,50
2018-04-20T05:33:59.934Z,50
2018-04-20T05:35:00.730Z,50
2018-04-20T05:36:00.130Z,50
2018-04-20T05:37:00.104Z,50
2018-04-20T05:38:00.628Z,50
2018-04-20T05:39:00.362Z,50
2018-04-20T05:40:00.071Z,55
2018-04-20T05:41:00.054Z,55
2018-04-20T05:42:00.052Z,55
2018-04-20T05:43:00.555Z,55
2018-04-20T05:44:00.027Z,55
2018-04-20T05:45:00.265Z,55
2018-04-20T05:46:00.312Z,60
2018-04-20T05:47:00.240Z,60
2018-04-20T05:47:59.753Z,60
2018-04-20T05:48:59.947Z,60
2018-04-20T05:50:00.203Z,60
2018-04-20T05:50:59.656Z,60
2018-04-20T05:51:59.921Z,65
2018-04-20T05:52:59.629Z,65
2018-04-20T05:53:59.889Z,65
2018-04-20T05:55:00.133Z,65
2018-04-20T05:55:59.858Z,65
2018-04-20T05:56:59.316Z,70
2018-04-20T05:57:59.835Z,70
2018-04-20T05:59:00.095Z,70
2018-04-20T05:59:59.813Z,70
2018-04-20T06:01:00.064Z,70
2018-04-20T06:02:00.055Z,70
2018-04-20T06:03:00.315Z,70
2018-04-20T06:03:59.499Z,70
2018-04-20T06:05:00.013Z,70
2018-04-20T06:05:59.739Z,70
2018-04-20T06:06:59.759Z,70
2018-04-20T06:07:59.978Z,75
2018-04-20T06:08:59.695Z,80
2018-04-20T06:09:59.692Z,75
2018-04-20T06:10:59.455Z,80
2018-04-20T06:11:59.659Z,75
2018-04-20T06:12:59.685Z,80
2018-04-20T06:13:59.108Z,80
2018-04-20T06:15:00.045Z,80
2018-04-20T06:15:59.341Z,80
2018-04-20T06:16:59.904Z,80
2018-04-20T06:17:59.324Z,80
2018-04-20T06:18:59.584Z,80
2018-04-20T06:19:59.570Z,85
2018-04-20T06:20:59.824Z,85
2018-04-20T06:21:59.815Z,85
2018-04-20T06:22:59.530Z,85
2018-04-20T06:23:59.257Z,85
2018-04-20T06:24:59.769Z,90
2018-04-20T06:25:59.494Z,90
2018-04-20T06:26:59.993Z,90
2018-04-20T06:27:59.464Z,90
2018-04-20T06:28:59.190Z,90
2018-04-20T06:29:59.446Z,90
2018-04-20T06:30:59.438Z,95
2018-04-20T06:31:59.422Z,95
2018-04-20T06:32:59.554Z,95
2018-04-20T06:33:59.674Z,95
2018-04-20T06:34:59.117Z,95
2018-04-20T06:35:59.373Z,100
2018-04-20T06:36:59.897Z,100
2018-04-20T06:37:59.827Z,100
2018-04-20T06:38:59.348Z,100
2018-04-20T06:39:59.606Z,100
2018-04-20T06:40:59.853Z,100
2018-04-20T06:41:59.051Z,100
2018-04-20T06:42:59.829Z,105
2018-04-20T06:43:59.830Z,105
2018-04-20T06:44:59.546Z,105
2018-04-20T06:45:59.533Z,105
2018-04-20T06:46:59.524Z,110
2018-04-20T06:47:59.510Z,110
2018-04-20T06:48:59.496Z,110
2018-04-20T06:49:59.479Z,110
2018-04-20T06:50:59.211Z,115
2018-04-20T06:51:58.937Z,115
2018-04-20T06:52:59.177Z,115
2018-04-20T06:53:58.649Z,115
2018-04-20T06:54:59.169Z,120
2018-04-20T06:55:58.898Z,120
2018-04-20T06:56:59.511Z,120
2018-04-20T06:57:59.401Z,120
2018-04-20T06:58:59.401Z,120
2018-04-20T06:59:59.649Z,125
2018-04-20T07:00:59.109Z,125
2018-04-20T07:01:59.090Z,125
2018-04-20T07:02:59.669Z,125
2018-04-20T07:03:59.074Z,130
2018-04-20T07:04:59.124Z,130
2018-04-20T07:05:59.047Z,130
2018-04-20T07:06:59.299Z,130
2018-04-20T07:07:59.566Z,135
2018-04-20T07:08:58.757Z,135
2018-04-20T07:09:59.005Z,135
2018-04-20T07:10:59.001Z,135
2018-04-20T07:11:59.305Z,140
2018-04-20T07:12:58.705Z,140
2018-04-20T07:13:59.284Z,140
2018-04-20T07:14:59.228Z,140
2018-04-20T07:15:58.701Z,140
2018-04-20T07:16:58.677Z,145
2018-04-20T07:17:58.656Z,145
2018-04-20T07:18:58.657Z,145
2018-04-20T07:19:58.905Z,145
2018-04-20T07:20:59.182Z,145
2018-04-20T07:21:58.622Z,145
2018-04-20T07:22:58.614Z,150
2018-04-20T07:23:59.413Z,150
2018-04-20T07:24:58.588Z,150
2018-04-20T07:25:58.584Z,150
2018-04-20T07:26:59.108Z,150
2018-04-20T07:27:58.301Z,155
2018-04-20T07:28:58.286Z,155
2018-04-20T07:29:59.346Z,155
2018-04-20T07:30:59.340Z,160
2018-04-20T07:31:58.790Z,160
2018-04-20T07:32:59.056Z,160
2018-04-20T07:33:58.517Z,160
2018-04-20T07:34:58.767Z,160
2018-04-20T07:35:59.279Z,170
2018-04-20T07:36:58.738Z,170
2018-04-20T07:37:59.271Z,165
2018-04-20T07:38:58.201Z,170
2018-04-20T07:39:58.717Z,170
2018-04-20T07:40:58.722Z,175
2018-04-20T07:41:58.972Z,170
2018-04-20T07:42:58.699Z,175
2018-04-20T07:43:58.947Z,175
2018-04-20T07:44:58.677Z,175
2018-04-20T07:45:58.927Z,175
2018-04-20T07:46:58.659Z,180
2018-04-20T07:47:58.656Z,180
2018-04-20T07:48:58.910Z,180
2018-04-20T07:49:59.164Z,185
2018-04-20T07:50:58.631Z,180
2018-04-20T07:51:59.159Z,185
2018-04-20T07:52:58.604Z,185
2018-04-20T07:53:58.597Z,185
2018-04-20T07:54:58.864Z,185
2018-04-20T07:55:58.844Z,190
2018-04-20T07:56:58.849Z,190
2018-04-20T07:57:58.832Z,190
2018-04-20T07:58:58.552Z,195
2018-04-20T07:59:58.863Z,195
2018-04-20T08:00:59.126Z,200
2018-04-20T08:01:58.286Z,200
2018-04-20T08:02:58.532Z,195
2018-04-20T08:03:59.097Z,200
2018-04-20T08:04:58.802Z,200
2018-04-20T08:05:58.780Z,205
2018-04-20T08:06:58.496Z,210
2018-04-20T08:07:58.226Z,210
2018-04-20T08:08:59.052Z,215
2018-04-20T08:09:59.013Z,225
2018-04-20T08:10:58.735Z,290
2018-04-20T08:11:58.724Z,605
2018-04-20T08:12:58.462Z,715
2018-04-20T08:13:59.210Z,630
2018-04-20T08:14:58.703Z,745
2018-04-20T08:15:58.691Z,690
2018-04-20T08:16:58.688Z,490
2018-04-20T08:17:58.687Z,475
2018-04-20T08:18:58.142Z,565
2018-04-20T08:19:58.677Z,505
2018-04-20T08:20:58.401Z,595
2018-04-20T08:21:58.660Z,420
2018-04-20T08:22:58.652Z,530
2018-04-20T08:23:58.391Z,645
2018-04-20T08:24:58.379Z,565
2018-04-20T08:25:58.120Z,395
2018-04-20T08:26:58.364Z,400
2018-04-20T08:27:58.364Z,400
2018-04-20T08:28:58.441Z,430
2018-04-20T08:29:58.916Z,490
2018-04-20T08:30:58.623Z,475
2018-04-20T08:31:58.097Z,360
2018-04-20T08:32:58.611Z,300
2018-04-20T08:33:58.348Z,315
2018-04-20T08:34:58.333Z,550
2018-04-20T08:35:58.326Z,665
2018-04-20T08:36:58.593Z,585
2018-04-20T08:37:58.865Z,605
2018-04-20T08:38:58.800Z,790
2018-04-20T08:39:58.049Z,720
2018-04-20T08:40:58.569Z,560
2018-04-20T08:41:58.045Z,575
2018-04-20T08:42:58.298Z,520
2018-04-20T08:43:58.557Z,510
2018-04-20T08:44:58.295Z,505
2018-04-20T08:45:58.303Z,465
2018-04-20T08:46:58.287Z,395
2018-04-20T08:47:58.291Z,385
2018-04-20T08:48:58.547Z,305
2018-04-20T08:49:58.816Z,270
2018-04-20T08:50:58.277Z,280
2018-04-20T08:51:58.532Z,275
2018-04-20T08:52:58.268Z,265
2018-04-20T08:53:58.263Z,265
2018-04-20T08:54:58.259Z,315
2018-04-20T08:55:58.256Z,335
2018-04-20T08:56:58.587Z,295
2018-04-20T08:57:58.775Z,275
2018-04-20T08:58:58.505Z,295
2018-04-20T08:59:58.767Z,355
2018-04-20T09:00:58.507Z,400
2018-04-20T09:01:57.969Z,355
2018-04-20T09:02:58.234Z,315
2018-04-20T09:03:57.967Z,295
2018-04-20T09:04:57.960Z,335
2018-04-20T09:05:58.225Z,360
2018-04-20T09:06:58.212Z,505
2018-04-20T09:07:58.212Z,655
2018-04-20T09:08:57.953Z,775
2018-04-20T09:09:58.471Z,930
2018-04-20T09:10:58.478Z,995
2018-04-20T09:11:58.467Z,790
2018-04-20T09:12:58.205Z,750
2018-04-20T09:13:58.455Z,670
2018-04-20T09:14:58.720Z,780
2018-04-20T09:15:58.495Z,895
2018-04-20T09:16:58.450Z,665
2018-04-20T09:17:58.444Z,420
2018-04-20T09:18:58.713Z,490
2018-04-20T09:19:58.178Z,680
2018-04-20T09:20:58.713Z,780
2018-04-20T09:21:58.429Z,745
2018-04-20T09:22:58.180Z,585
2018-04-20T09:23:57.910Z,830
2018-04-20T09:24:58.426Z,945
2018-04-20T09:25:58.432Z,750
2018-04-20T09:26:58.168Z,515
2018-04-20T09:27:58.693Z,665
2018-04-20T09:28:58.420Z,800
2018-04-20T09:29:58.424Z,655
2018-04-20T09:30:58.420Z,605
2018-04-20T09:31:58.157Z,605
2018-04-20T09:32:58.150Z,490
2018-04-20T09:33:58.414Z,390
2018-04-20T09:34:57.613Z,350
2018-04-20T09:35:58.401Z,360
2018-04-20T09:36:58.149Z,450
2018-04-20T09:37:58.393Z,550
2018-04-20T09:38:58.406Z,465
2018-04-20T09:39:58.244Z,340
2018-04-20T09:40:58.132Z,310
2018-04-20T09:41:58.134Z,280
2018-04-20T09:42:58.131Z,290
2018-04-20T09:43:57.871Z,330
2018-04-20T09:44:58.388Z,430
2018-04-20T09:45:58.384Z,505
2018-04-20T09:46:58.376Z,380
2018-04-20T09:47:57.860Z,320
2018-04-20T09:48:58.386Z,375
2018-04-20T09:49:58.382Z,460
2018-04-20T09:50:58.110Z,460
2018-04-20T09:51:58.111Z,305
2018-04-20T09:52:57.841Z,285
2018-04-20T09:53:58.100Z,315
2018-04-20T09:54:58.360Z,320
2018-04-20T09:55:58.092Z,415
2018-04-20T09:56:58.361Z,510
2018-04-20T09:57:58.355Z,515
2018-04-20T09:58:57.846Z,485
2018-04-20T09:59:58.345Z,385
2018-04-20T10:00:58.087Z,375
2018-04-20T10:01:58.076Z,450
2018-04-20T10:02:57.815Z,680
2018-04-20T10:03:58.073Z,650
2018-04-20T10:04:58.392Z,515
2018-04-20T10:05:57.534Z,470
2018-04-20T10:06:58.061Z,385
2018-04-20T10:07:58.493Z,380
2018-04-20T10:08:58.591Z,345
2018-04-20T10:09:58.590Z,320
2018-04-20T10:10:58.322Z,355
2018-04-20T10:11:58.055Z,345
2018-04-20T10:12:57.812Z,445
2018-04-20T10:13:58.319Z,445
2018-04-20T10:14:58.566Z,415
2018-04-20T10:15:58.039Z,395
2018-04-20T10:16:58.048Z,520
2018-04-20T10:17:58.560Z,450
2018-04-20T10:18:57.497Z,380
2018-04-20T10:19:58.288Z,430
2018-04-20T10:20:58.021Z,585
2018-04-20T10:21:58.290Z,620
2018-04-20T10:22:58.281Z,570
2018-04-20T10:23:58.281Z,500
2018-04-20T10:24:58.036Z,540
2018-04-20T10:25:57.738Z,690
2018-04-20T10:26:58.544Z,735
2018-04-20T10:27:57.486Z,750
2018-04-20T10:28:58.279Z,705
2018-04-20T10:29:58.000Z,875
2018-04-20T10:30:58.000Z,835
2018-04-20T10:31:58.531Z,730
2018-04-20T10:32:58.260Z,575
2018-04-20T10:33:57.991Z,520
2018-04-20T10:34:58.261Z,640
2018-04-20T10:35:58.076Z,550
2018-04-20T10:36:57.992Z,490
2018-04-20T10:37:58.254Z,435
2018-04-20T10:38:58.180Z,520
2018-04-20T10:39:57.981Z,475
2018-04-20T10:40:58.255Z,525
2018-04-20T10:41:57.713Z,690
2018-04-20T10:42:58.243Z,920
2018-04-20T10:43:57.446Z,1110
2018-04-20T10:44:57.974Z,785
2018-04-20T10:45:58.239Z,515
2018-04-20T10:46:58.233Z,505
2018-04-20T10:47:58.253Z,425
2018-04-20T10:48:58.225Z,435
2018-04-20T10:49:57.975Z,475
2018-04-20T10:50:58.230Z,505
2018-04-20T10:51:58.234Z,660
2018-04-20T10:52:57.704Z,1195
2018-04-20T10:53:57.705Z,1435
2018-04-20T10:54:58.509Z,1285
2018-04-20T10:55:57.968Z,835
2018-04-20T10:56:57.693Z,1055
2018-04-20T10:57:57.695Z,975
2018-04-20T10:58:57.966Z,850
2018-04-20T10:59:57.964Z,1000
2018-04-20T11:00:58.501Z,1230
2018-04-20T11:01:58.218Z,1235
2018-04-20T11:02:58.521Z,1275
2018-04-20T11:03:58.495Z,1565
2018-04-20T11:04:58.503Z,1640
2018-04-20T11:05:57.702Z,1660
2018-04-20T11:06:58.250Z,1705
2018-04-20T11:07:57.710Z,1725
2018-04-20T11:08:57.982Z,1715
2018-04-20T11:09:58.245Z,1695
2018-04-20T11:10:58.282Z,1685
2018-04-20T11:11:57.995Z,1600
2018-04-20T11:12:58.311Z,1505
2018-04-20T11:13:58.281Z,1610
2018-04-20T11:14:58.266Z,1505
2018-04-20T11:15:58.545Z,1460
2018-04-20T11:16:58.285Z,1545
2018-04-20T11:17:58.282Z,1570
2018-04-20T11:18:58.287Z,1630
2018-04-20T11:19:58.025Z,1695
2018-04-20T11:20:58.299Z,1715
2018-04-20T11:21:58.035Z,1760
2018-04-20T11:22:58.310Z,1805
2018-04-20T11:23:57.792Z,1805
2018-04-20T11:24:57.792Z,1750
2018-04-20T11:25:58.330Z,1730
2018-04-20T11:26:58.069Z,1725
2018-04-20T11:27:58.080Z,1760
2018-04-20T11:28:58.606Z,1760
2018-04-20T11:29:58.348Z,1755
2018-04-20T11:30:58.096Z,1745
2018-04-20T11:31:58.419Z,1750
2018-04-20T11:32:57.589Z,1755
2018-04-20T11:33:58.114Z,1730
2018-04-20T11:34:58.654Z,1685
2018-04-20T11:35:58.392Z,1610
2018-04-20T11:36:58.461Z,1535
2018-04-20T11:37:57.879Z,1500
2018-04-20T11:38:58.145Z,1600
2018-04-20T11:39:58.473Z,1795
2018-04-20T11:40:58.434Z,1930
2018-04-20T11:41:58.173Z,1970
2018-04-20T11:42:58.453Z,1940
2018-04-20T11:43:58.452Z,1885
2018-04-20T11:44:58.206Z,1880
2018-04-20T11:45:58.206Z,1890
2018-04-20T11:46:58.220Z,1880
2018-04-20T11:47:58.769Z,1885
2018-04-20T11:48:58.232Z,1845
2018-04-20T11:49:58.229Z,1715
2018-04-20T11:50:58.241Z,1555
2018-04-20T11:51:58.785Z,1440
2018-04-20T11:52:58.537Z,1445
2018-04-20T11:53:58.882Z,1520
2018-04-20T11:54:58.563Z,1620
2018-04-20T11:55:58.819Z,1735
2018-04-20T11:56:58.568Z,1815
2018-04-20T11:57:58.620Z,1855
2018-04-20T11:58:58.311Z,1875
2018-04-20T11:59:58.353Z,1880
2018-04-20T12:00:58.632Z,1870
2018-04-20T12:01:58.606Z,1880
2018-04-20T12:02:58.607Z,1870
2018-04-20T12:03:58.649Z,1790
2018-04-20T12:04:58.625Z,1750
2018-04-20T12:05:58.875Z,1735
2018-04-20T12:06:58.635Z,1780
2018-04-20T12:07:58.117Z,1785
2018-04-20T12:08:58.915Z,1780
2018-04-20T12:09:58.668Z,1725
2018-04-20T12:10:58.411Z,1750
2018-04-20T12:11:58.150Z,1780
2018-04-20T12:12:58.153Z,1850
2018-04-20T12:13:58.428Z,1830
2018-04-20T12:14:58.435Z,1835
2018-04-20T12:15:58.706Z,1855
2018-04-20T12:16:58.716Z,1815
2018-04-20T12:17:58.465Z,1785
2018-04-20T12:18:58.740Z,1825
2018-04-20T12:19:58.488Z,1870
2018-04-20T12:20:58.751Z,1875
2018-04-20T12:21:59.031Z,1875
2018-04-20T12:22:58.764Z,1870
2018-04-20T12:23:58.510Z,1870
2018-04-20T12:24:59.041Z,1820
2018-04-20T12:25:58.795Z,1845
2018-04-20T12:26:58.799Z,1835
2018-04-20T12:27:58.747Z,1790
2018-04-20T12:28:58.821Z,1760
2018-04-20T12:29:58.293Z,1750
2018-04-20T12:30:58.853Z,1725
2018-04-20T12:31:58.837Z,1705
2018-04-20T12:32:58.593Z,1700
2018-04-20T12:33:58.859Z,1700
2018-04-20T12:34:58.595Z,1705
2018-04-20T12:35:58.610Z,1715
2018-04-20T12:36:58.894Z,1725
2018-04-20T12:37:58.622Z,1770
2018-04-20T12:38:58.657Z,1825
2018-04-20T12:39:58.114Z,1845
2018-04-20T12:40:58.650Z,1855
2018-04-20T12:41:58.668Z,1825
2018-04-20T12:42:58.939Z,1750
2018-04-20T12:43:58.674Z,1690
2018-04-20T12:44:58.620Z,1665
2018-04-20T12:45:58.949Z,1635
2018-04-20T12:46:58.977Z,1670
2018-04-20T12:47:59.319Z,1710
2018-04-20T12:48:58.709Z,1720
2018-04-20T12:49:58.987Z,1700
2018-04-20T12:50:58.993Z,1645
2018-04-20T12:51:59.001Z,1610
2018-04-20T12:52:59.179Z,1585
2018-04-20T12:53:59.288Z,1575
2018-04-20T12:54:59.025Z,1575
2018-04-20T12:55:58.511Z,1565
2018-04-20T12:56:59.042Z,1530
2018-04-20T12:57:59.069Z,1470
2018-04-20T12:58:59.051Z,1410
2018-04-20T12:59:58.535Z,1410
2018-04-20T13:00:59.074Z,1465
2018-04-20T13:01:59.352Z,1495
2018-04-20T13:02:58.834Z,1525
2018-04-20T13:03:58.828Z,1515
2018-04-20T13:04:58.833Z,1455
2018-04-20T13:05:58.896Z,1435
2018-04-20T13:06:59.123Z,1430
2018-04-20T13:07:59.123Z,1435
2018-04-20T13:08:59.199Z,1485
2018-04-20T13:09:59.135Z,1515
2018-04-20T13:10:58.874Z,1535
2018-04-20T13:11:58.879Z,1535
2018-04-20T13:12:59.167Z,1500
2018-04-20T13:13:59.436Z,1485
2018-04-20T13:14:58.919Z,1480
2018-04-20T13:15:58.917Z,1465
2018-04-20T13:16:59.200Z,1430
2018-04-20T13:17:59.464Z,1440
2018-04-20T13:18:59.262Z,1480
2018-04-20T13:19:58.942Z,1490
2018-04-20T13:20:58.948Z,1440
2018-04-20T13:21:58.957Z,1410
2018-04-20T13:22:59.270Z,1405
2018-04-20T13:23:58.985Z,1390
2018-04-20T13:24:59.176Z,1370
2018-04-20T13:25:59.009Z,1395
2018-04-20T13:26:59.575Z,1430
2018-04-20T13:27:59.288Z,1505
2018-04-20T13:28:59.022Z,1535
2018-04-20T13:29:59.361Z,1550
2018-04-20T13:30:59.635Z,1505
2018-04-20T13:31:59.078Z,1425
2018-04-20T13:32:59.308Z,1340
2018-04-20T13:33:59.051Z,1305
2018-04-20T13:34:59.051Z,1350
2018-04-20T13:35:59.341Z,1380
2018-04-20T13:36:59.421Z,1355
2018-04-20T13:37:59.337Z,1350
2018-04-20T13:38:59.344Z,1330
2018-04-20T13:39:58.821Z,1320
2018-04-20T13:40:58.837Z,1335
2018-04-20T13:41:59.371Z,1365
2018-04-20T13:42:59.099Z,1415
2018-04-20T13:43:58.840Z,1435
2018-04-20T13:44:59.117Z,1420
2018-04-20T13:45:59.121Z,1400
2018-04-20T13:46:59.122Z,1380
2018-04-20T13:47:59.664Z,1370
2018-04-20T13:48:59.554Z,1360
2018-04-20T13:49:59.135Z,1310
2018-04-20T13:50:58.925Z,1300
2018-04-20T13:51:59.162Z,1340
2018-04-20T13:52:59.725Z,1345
2018-04-20T13:53:59.515Z,1320
2018-04-20T13:54:59.170Z,1290
2018-04-20T13:55:59.178Z,1300
2018-04-20T13:56:59.181Z,1310
2018-04-20T13:57:58.927Z,1320
2018-04-20T13:58:59.228Z,1340
2018-04-20T13:59:58.943Z,1330
2018-04-20T14:00:59.489Z,1315
2018-04-20T14:01:59.767Z,1290